Página principal
METAR-TAF:

METAR-TAF

Aeroportos :

Dubai, Emirados Árabes Unidos

Aeroporto Internacional de Dubai

latitude: 25-15-10N, longitude: 055-21-52E, altura: 8 m

Observação actual do tempo

O boletim foi feito há 1 hora e 14 minutos, às 14:00 UTC
Vento 15 kt de oeste
Temperatura 22°C
Humidade 50%
Pressão 1015 hPa
Visibilidade 10 km ou mais
sem nuvens abaixo de 1500 metros e sem cumulonimbus

METAR: OMDB 161400Z 26015KT CAVOK 22/11 Q1015 NOSIG

Hora: 19:14 (15:14 UTC)

Previsão

O boletim foi feito há 4 horas e 15 minutos, às 10:59 UTC
Previsão válida de 16 às 12 UTC a 17 às 18 UTC
Vento 15 kt de oes-noroeste
Visibilidade: 8000 m
Tornando-se
de 16 às 21 UTC a 16 às 23 UTC
Vento 7 kt de su-sudoeste
Tornando-se
de 17 às 07 UTC a 17 às 09 UTC
Vento 10 kt de oeste
Tornando-se
de 17 às 16 UTC a 17 às 18 UTC
Vento 5 kt de su-sudoeste

TAF: OMDB 161059Z 1612/1718 29015KT 8000 NSC BECMG 1621/1623 21007KT BECMG 1707/1709 27010KT BECMG 1716/1718 20005KT

Observações e previsões do tempo de mais de 4000 aeroportos (mensagens METAR e TAF).

As estações disponíveis são os pontos amarelos e vermelhos sobre o mapa.

Mova o rato sobre o mapa para ver o nome da estação.

Depois clique no ponto para visualizar as observações e previsões meteorológicas.

Para alterar o mapa : clique nos botões verdes com uma cruz preta para aumentar o zoom; no botão verde com uma pitada de zoom; ou nas setas verdes para mapas adjacentes.


METAR-TAF: